»·PEaware :: RNGR723 KNGP-KNGP

RNGR723 :: KNGP-KNGP

FLIGHT INFORMATION

Flight Status: Arrived
Operator: Unknown
More flights by this operator :: More flights under this callsign
Pilot: USN Avenger (31125)
Aircraft: BEECH AIRCRAFT T-6A TEXAN
(TEX2)
More flights by this aircraft type
Origin: KNGP Corpus Christi NAS/Truax
United States
Destination: KNGP Corpus Christi NAS/Truax
United States
More flights between these airports :: More routes between these airports
Route: MUSTANG SOUTH KNWL
File this flight plan on PilotEdge
Remarks: 36 please
Altitude:
(Current/Filed)
5,500ft
Speed:
(Current/Filed)
240kts
Departed: 15-Nov-23 11:48 AM
Arrived: 15-Nov-23 12:22 PM
Distance/Time
Traveled:
0nm/0:34
Distance/Time
To Go:
Arrived

Flight Plot

Page will automatically refresh every two minutes.

Flight plan parsing failed; only flown route is shown


Map Options




Map Legend


Flown Route
Filed Route
Departure Airport
Arrival Airport
Navaid (VOR, NDB)
Fix

Horizontal Profiles

Position Reports

Time Latitude Longitude Heading Altitude Ground
Speed
15-Nov-23 11:33 27.698535 -97.284281 159 22ft 0kts
15-Nov-23 11:34 27.698534 -97.284281 159 22ft 0kts
15-Nov-23 11:35 27.698532 -97.284280 159 22ft 0kts
15-Nov-23 11:36 27.698531 -97.284279 159 22ft 0kts
15-Nov-23 11:37 27.698529 -97.284279 159 22ft 0kts
15-Nov-23 11:38 27.698528 -97.284278 159 22ft 0kts
15-Nov-23 11:39 27.698526 -97.284277 159 22ft 0kts
15-Nov-23 11:40 27.698525 -97.284277 159 22ft 0kts
15-Nov-23 11:41 27.698523 -97.284276 159 22ft 0kts
15-Nov-23 11:42 27.698522 -97.284275 159 22ft 0kts
15-Nov-23 11:43 27.698215 -97.284395 244 22ft 9kts
15-Nov-23 11:44 27.698544 -97.287504 225 22ft 19kts
15-Nov-23 11:45 27.695867 -97.290930 220 22ft 0kts
15-Nov-23 11:46 27.694788 -97.291267 135 22ft 0kts
15-Nov-23 11:47 27.684982 -97.279495 128 233ft 147kts
15-Nov-23 11:48 27.651422 -97.230860 124 557ft 216kts
15-Nov-23 11:49 27.626122 -97.177949 173 2931ft 203kts
15-Nov-23 11:50 27.575822 -97.199424 204 5438ft 203kts
15-Nov-23 11:51 27.515787 -97.231891 205 5581ft 262kts
15-Nov-23 11:52 27.449242 -97.265280 202 5518ft 257kts
15-Nov-23 11:53 27.381769 -97.289204 192 6202ft 228kts
15-Nov-23 11:54 27.336338 -97.266390 194 8964ft 197kts
15-Nov-23 11:55 27.282268 -97.282120 192 10526ft 239kts
15-Nov-23 11:56 27.314850 -97.284670 12 9438ft 241kts
15-Nov-23 11:57 27.378233 -97.270766 342 7353ft 225kts
15-Nov-23 11:58 27.414219 -97.322688 300 5277ft 206kts
15-Nov-23 11:59 27.447892 -97.367582 0 1921ft 187kts
15-Nov-23 12:00 27.500183 -97.349874 14 1057ft 204kts
15-Nov-23 12:01 27.554129 -97.329745 17 1084ft 201kts
15-Nov-23 12:02 27.607853 -97.316170 358 1050ft 203kts
15-Nov-23 12:03 27.645636 -97.331770 197 933ft 133kts
15-Nov-23 12:04 27.618034 -97.318405 60 233ft 119kts
15-Nov-23 12:05 27.649367 -97.315115 359 441ft 127kts
15-Nov-23 12:06 27.648557 -97.331080 179 851ft 126kts
15-Nov-23 12:07 27.616282 -97.324120 106 565ft 122kts
15-Nov-23 12:08 27.641783 -97.315306 358 164ft 122kts
15-Nov-23 12:09 27.656752 -97.329746 182 799ft 127kts
15-Nov-23 12:10 27.623786 -97.326715 163 809ft 113kts
15-Nov-23 12:11 27.591656 -97.290260 115 638ft 231kts
15-Nov-23 12:12 27.558880 -97.224305 98 584ft 234kts
15-Nov-23 12:13 27.609329 -97.182725 20 982ft 247kts
15-Nov-23 12:14 27.670550 -97.153110 27 994ft 240kts
15-Nov-23 12:15 27.730220 -97.120925 346 1007ft 232kts
15-Nov-23 12:16 27.755747 -97.178603 258 981ft 177kts
15-Nov-23 12:17 27.716141 -97.212304 210 999ft 205kts
15-Nov-23 12:18 27.674875 -97.253638 265 1024ft 203kts
15-Nov-23 12:19 27.707570 -97.288148 89 986ft 142kts
15-Nov-23 12:20 27.682555 -97.270665 236 372ft 108kts
15-Nov-23 12:21 27.693206 -97.289420 315 22ft 23kts
15-Nov-23 12:22 27.695744 -97.290608 42 22ft 0kts

Navigation Log

Ident Type
Flight plan parsing failed, navigation log unavailable